createdAt,value
2018-09-30T00:00:56.061Z,1015.68
2018-09-30T00:01:55.982Z,1015.67
2018-09-30T00:02:55.903Z,1015.64
2018-09-30T00:03:55.826Z,1015.64
2018-09-30T00:04:55.742Z,1015.65
2018-09-30T00:05:55.663Z,1015.66
2018-09-30T00:06:55.606Z,1015.63
2018-09-30T00:07:55.505Z,1015.68
2018-09-30T00:08:55.421Z,1015.72
2018-09-30T00:09:55.348Z,1015.68
2018-09-30T00:10:55.271Z,1015.68
2018-09-30T00:11:55.187Z,1015.68
2018-09-30T00:12:55.110Z,1015.65
2018-09-30T00:13:55.030Z,1015.64
2018-09-30T00:14:54.956Z,1015.67
2018-09-30T00:15:54.869Z,1015.65
2018-09-30T00:16:54.791Z,1015.64
2018-09-30T00:17:54.711Z,1015.65
2018-09-30T00:18:54.633Z,1015.62
2018-09-30T00:19:54.557Z,1015.64
2018-09-30T00:20:54.469Z,1015.62
2018-09-30T00:21:54.399Z,1015.61
2018-09-30T00:22:54.317Z,1015.59
2018-09-30T00:23:54.242Z,1015.57
2018-09-30T00:24:54.161Z,1015.56
2018-09-30T00:25:54.078Z,1015.55
2018-09-30T00:26:53.996Z,1015.54
2018-09-30T00:27:53.918Z,1015.52
2018-09-30T00:28:53.847Z,1015.50
2018-09-30T00:29:53.763Z,1015.54
2018-09-30T00:30:53.687Z,1015.56
2018-09-30T00:31:53.623Z,1015.53
2018-09-30T00:32:53.531Z,1015.49
2018-09-30T00:33:53.443Z,1015.45
2018-09-30T00:34:53.373Z,1015.46
2018-09-30T00:35:53.286Z,1015.49
2018-09-30T00:36:53.204Z,1015.45
2018-09-30T00:37:53.125Z,1015.41
2018-09-30T00:38:53.048Z,1015.43
2018-09-30T00:39:52.964Z,1015.40
2018-09-30T00:40:52.887Z,1015.36
2018-09-30T00:41:52.807Z,1015.39
2018-09-30T00:42:52.732Z,1015.39
2018-09-30T00:43:52.648Z,1015.37
2018-09-30T00:44:52.569Z,1015.37
2018-09-30T00:45:52.489Z,1015.36
2018-09-30T00:46:52.413Z,1015.36
2018-09-30T00:47:52.331Z,1015.32
2018-09-30T00:48:52.253Z,1015.34
2018-09-30T00:49:52.171Z,1015.28
2018-09-30T00:50:52.092Z,1015.29
2018-09-30T00:51:52.011Z,1015.26
2018-09-30T00:52:51.934Z,1015.30
2018-09-30T00:53:51.857Z,1015.29
2018-09-30T00:54:51.773Z,1015.30
2018-09-30T00:55:51.693Z,1015.24
2018-09-30T00:56:51.617Z,1015.25
2018-09-30T00:57:51.533Z,1015.22
2018-09-30T00:58:51.457Z,1015.19
2018-09-30T00:59:51.377Z,1015.14
2018-09-30T01:00:51.295Z,1015.13
2018-09-30T01:01:51.215Z,1015.07
2018-09-30T01:02:51.137Z,1015.03
2018-09-30T01:03:51.057Z,1015.04
2018-09-30T01:04:50.978Z,1015.02
2018-09-30T01:05:50.900Z,1015.00
2018-09-30T01:06:50.819Z,1014.99
2018-09-30T01:07:50.737Z,1014.98
2018-09-30T01:08:50.660Z,1014.95
2018-09-30T01:09:50.579Z,1014.96
2018-09-30T01:10:50.500Z,1014.87
2018-09-30T01:11:50.420Z,1014.86
2018-09-30T01:12:50.345Z,1014.85
2018-09-30T01:13:50.260Z,1014.82
2018-09-30T01:14:50.180Z,1014.88
2018-09-30T01:15:50.107Z,1014.84
2018-09-30T01:16:50.017Z,1014.79
2018-09-30T01:17:49.943Z,1014.81
2018-09-30T01:18:49.863Z,1014.82
2018-09-30T01:19:49.790Z,1014.78
2018-09-30T01:20:49.704Z,1014.81
2018-09-30T01:21:49.623Z,1014.83
2018-09-30T01:22:49.544Z,1014.79
2018-09-30T01:23:49.465Z,1014.80
2018-09-30T01:24:49.386Z,1014.80
2018-09-30T01:25:49.308Z,1014.78
2018-09-30T01:26:49.225Z,1014.79
2018-09-30T01:27:49.144Z,1014.74
2018-09-30T01:28:49.066Z,1014.73
2018-09-30T01:29:48.987Z,1014.75
2018-09-30T01:30:48.907Z,1014.78
2018-09-30T01:31:48.829Z,1014.77
2018-09-30T01:32:48.743Z,1014.71
2018-09-30T01:33:48.667Z,1014.74
2018-09-30T01:34:48.589Z,1014.68
2018-09-30T01:35:48.508Z,1014.67
2018-09-30T01:36:48.428Z,1014.72
2018-09-30T01:37:48.351Z,1014.68
2018-09-30T01:38:48.269Z,1014.73
2018-09-30T01:39:48.186Z,1014.75
2018-09-30T01:40:48.107Z,1014.75
2018-09-30T01:41:48.028Z,1014.68
2018-09-30T01:42:47.950Z,1014.71
2018-09-30T01:43:47.873Z,1014.68
2018-09-30T01:44:47.788Z,1014.67
2018-09-30T01:45:47.711Z,1014.73
2018-09-30T01:46:47.630Z,1014.70
2018-09-30T01:47:47.550Z,1014.67
2018-09-30T01:48:47.471Z,1014.63
2018-09-30T01:49:47.390Z,1014.64
2018-09-30T01:50:47.310Z,1014.59
2018-09-30T01:51:47.230Z,1014.59
2018-09-30T01:52:47.152Z,1014.60
2018-09-30T01:53:47.070Z,1014.60
2018-09-30T01:54:46.992Z,1014.60
2018-09-30T01:55:46.911Z,1014.61
2018-09-30T01:56:46.832Z,1014.59
2018-09-30T01:57:46.755Z,1014.62
2018-09-30T01:58:46.672Z,1014.61
2018-09-30T01:59:46.592Z,1014.57
2018-09-30T02:00:46.517Z,1014.53
2018-09-30T02:01:46.428Z,1014.48
2018-09-30T02:02:46.351Z,1014.52
2018-09-30T02:03:46.272Z,1014.45
2018-09-30T02:04:46.191Z,1014.44
2018-09-30T02:05:46.113Z,1014.44
2018-09-30T02:06:46.038Z,1014.44
2018-09-30T02:07:45.950Z,1014.42
2018-09-30T02:08:45.869Z,1014.35
2018-09-30T02:09:45.799Z,1014.42
2018-09-30T02:10:45.714Z,1014.44
2018-09-30T02:11:45.629Z,1014.42
2018-09-30T02:12:45.552Z,1014.44
2018-09-30T02:13:45.472Z,1014.43
2018-09-30T02:14:45.400Z,1014.37
2018-09-30T02:15:45.313Z,1014.37
2018-09-30T02:16:45.235Z,1014.36
2018-09-30T02:17:45.152Z,1014.31
2018-09-30T02:18:45.071Z,1014.36
2018-09-30T02:19:44.992Z,1014.28
2018-09-30T02:20:44.914Z,1014.31
2018-09-30T02:21:44.832Z,1014.29
2018-09-30T02:22:44.753Z,1014.28
2018-09-30T02:23:44.671Z,1014.28
2018-09-30T02:24:44.596Z,1014.31
2018-09-30T02:25:44.515Z,1014.28
2018-09-30T02:26:44.430Z,1014.29
2018-09-30T02:27:44.349Z,1014.31
2018-09-30T02:28:44.271Z,1014.30
2018-09-30T02:29:44.195Z,1014.27
2018-09-30T02:30:44.110Z,1014.27
2018-09-30T02:31:44.031Z,1014.28
2018-09-30T02:32:43.949Z,1014.27
2018-09-30T02:33:43.870Z,1014.27
2018-09-30T02:34:43.791Z,1014.26
2018-09-30T02:35:43.711Z,1014.23
2018-09-30T02:36:43.630Z,1014.20
2018-09-30T02:37:43.552Z,1014.24
2018-09-30T02:38:43.469Z,1014.22
2018-09-30T02:39:43.389Z,1014.24
2018-09-30T02:40:43.309Z,1014.28
2018-09-30T02:41:43.228Z,1014.20
2018-09-30T02:42:43.150Z,1014.25
2018-09-30T02:43:43.069Z,1014.25
2018-09-30T02:44:42.988Z,1014.22
2018-09-30T02:45:42.909Z,1014.26
2018-09-30T02:46:42.828Z,1014.19
2018-09-30T02:47:42.741Z,1014.16
2018-09-30T02:48:42.670Z,1014.18
2018-09-30T02:49:42.588Z,1014.18
2018-09-30T02:50:42.520Z,1014.16
2018-09-30T02:51:42.430Z,1014.12
2018-09-30T02:52:42.348Z,1014.11
2018-09-30T02:53:42.270Z,1014.10
2018-09-30T02:54:42.186Z,1014.09
2018-09-30T02:55:42.108Z,1014.15
2018-09-30T02:56:42.027Z,1014.08
2018-09-30T02:57:41.948Z,1014.10
2018-09-30T02:58:41.864Z,1014.07
2018-09-30T02:59:41.787Z,1014.07
2018-09-30T03:00:41.701Z,1014.08
2018-09-30T03:01:41.623Z,1014.07
2018-09-30T03:02:41.545Z,1014.05
2018-09-30T03:03:41.466Z,1014.03
2018-09-30T03:04:41.383Z,1014.02
2018-09-30T03:05:41.307Z,1013.98
2018-09-30T03:06:41.220Z,1013.99
2018-09-30T03:07:41.141Z,1014.01
2018-09-30T03:08:41.058Z,1013.99
2018-09-30T03:09:40.997Z,1013.95
2018-09-30T03:10:40.900Z,1013.95
2018-09-30T03:11:40.817Z,1013.86
2018-09-30T03:12:40.739Z,1013.89
2018-09-30T03:13:40.656Z,1013.86
2018-09-30T03:14:40.583Z,1013.88
2018-09-30T03:15:40.500Z,1013.90
2018-09-30T03:16:40.418Z,1013.90
2018-09-30T03:17:40.343Z,1013.86
2018-09-30T03:18:40.295Z,1013.86
2018-09-30T03:19:40.175Z,1013.82
2018-09-30T03:20:40.098Z,1013.80
2018-09-30T03:21:40.015Z,1013.79
2018-09-30T03:22:39.935Z,1013.74
2018-09-30T03:23:39.855Z,1013.70
2018-09-30T03:24:39.774Z,1013.66
2018-09-30T03:25:39.698Z,1013.69
2018-09-30T03:26:39.611Z,1013.69
2018-09-30T03:27:39.530Z,1013.69
2018-09-30T03:28:39.451Z,1013.70
2018-09-30T03:29:39.371Z,1013.68
2018-09-30T03:30:39.315Z,1013.73
2018-09-30T03:31:39.210Z,1013.70
2018-09-30T03:32:39.128Z,1013.66
2018-09-30T03:33:39.049Z,1013.72
2018-09-30T03:34:38.967Z,1013.63
2018-09-30T03:35:38.888Z,1013.60
2018-09-30T03:36:38.806Z,1013.62
2018-09-30T03:37:38.727Z,1013.60
2018-09-30T03:38:38.651Z,1013.64
2018-09-30T03:39:38.583Z,1013.62
2018-09-30T03:40:38.487Z,1013.64
2018-09-30T03:41:38.404Z,1013.63
2018-09-30T03:42:38.327Z,1013.62
2018-09-30T03:43:38.243Z,1013.63
2018-09-30T03:44:38.162Z,1013.61
2018-09-30T03:45:38.082Z,1013.62
2018-09-30T03:46:38.003Z,1013.63
2018-09-30T03:47:37.917Z,1013.63
2018-09-30T03:48:37.841Z,1013.56
2018-09-30T03:49:37.758Z,1013.58
2018-09-30T03:50:37.678Z,1013.60
2018-09-30T03:51:37.602Z,1013.55
2018-09-30T03:52:37.520Z,1013.55
2018-09-30T03:53:37.436Z,1013.55
2018-09-30T03:54:37.357Z,1013.49
2018-09-30T03:55:37.272Z,1013.51
2018-09-30T03:56:37.242Z,1013.50
2018-09-30T03:57:37.113Z,1013.51
2018-09-30T03:58:37.031Z,1013.55
2018-09-30T03:59:36.953Z,1013.56
2018-09-30T04:00:36.871Z,1013.54
2018-09-30T04:01:36.792Z,1013.53
2018-09-30T04:02:36.709Z,1013.50
2018-09-30T04:03:36.628Z,1013.51
2018-09-30T04:04:36.552Z,1013.49
2018-09-30T04:05:36.470Z,1013.45
2018-09-30T04:06:36.391Z,1013.46
2018-09-30T04:07:36.300Z,1013.46
2018-09-30T04:08:36.226Z,1013.44
2018-09-30T04:09:36.191Z,1013.42
2018-09-30T04:10:36.066Z,1013.44
2018-09-30T04:11:35.988Z,1013.37
2018-09-30T04:12:35.903Z,1013.35
2018-09-30T04:13:35.828Z,1013.36
2018-09-30T04:14:35.742Z,1013.39
2018-09-30T04:15:35.668Z,1013.34
2018-09-30T04:16:35.582Z,1013.34
2018-09-30T04:17:35.499Z,1013.22
2018-09-30T04:18:35.424Z,1013.27
2018-09-30T04:19:35.343Z,1013.20
2018-09-30T04:20:35.253Z,1013.20
2018-09-30T04:21:35.177Z,1013.20
2018-09-30T04:22:35.097Z,1013.17
2018-09-30T04:23:35.016Z,1013.20
2018-09-30T04:24:34.933Z,1013.15
2018-09-30T04:25:34.853Z,1013.14
2018-09-30T04:26:34.772Z,1013.15
2018-09-30T04:27:34.687Z,1013.10
2018-09-30T04:28:34.617Z,1013.12
2018-09-30T04:29:34.529Z,1013.13
2018-09-30T04:30:34.449Z,1013.09
2018-09-30T04:31:34.370Z,1013.09
2018-09-30T04:32:34.287Z,1013.08
2018-09-30T04:33:34.209Z,1013.12
2018-09-30T04:34:34.126Z,1013.05
2018-09-30T04:35:34.046Z,1013.06
2018-09-30T04:36:33.967Z,1013.06
2018-09-30T04:37:33.890Z,1013.07
2018-09-30T04:38:33.804Z,1013.11
2018-09-30T04:39:33.733Z,1013.12
2018-09-30T04:40:33.644Z,1013.13
2018-09-30T04:41:33.559Z,1013.08
2018-09-30T04:42:33.479Z,1013.11
2018-09-30T04:43:33.399Z,1013.09
2018-09-30T04:44:33.322Z,1013.07
2018-09-30T04:45:33.238Z,1013.04
2018-09-30T04:46:33.156Z,1013.00
2018-09-30T04:47:33.079Z,1013.05
2018-09-30T04:48:32.991Z,1013.06
2018-09-30T04:49:32.914Z,1013.06
2018-09-30T04:50:32.836Z,1013.05
2018-09-30T04:51:32.751Z,1013.01
2018-09-30T04:52:32.672Z,1013.02
2018-09-30T04:53:32.604Z,1012.99
2018-09-30T04:54:32.514Z,1012.98
2018-09-30T04:55:32.426Z,1013.01
2018-09-30T04:56:32.348Z,1012.97
2018-09-30T04:57:32.268Z,1012.97
2018-09-30T04:58:32.199Z,1012.96
2018-09-30T04:59:32.106Z,1012.99
2018-09-30T05:00:32.026Z,1012.97
2018-09-30T05:01:31.941Z,1012.95
2018-09-30T05:02:31.862Z,1012.95
2018-09-30T05:03:31.783Z,1012.90
2018-09-30T05:04:31.701Z,1012.87
2018-09-30T05:05:31.617Z,1012.91
2018-09-30T05:06:31.539Z,1012.95
2018-09-30T05:07:31.461Z,1012.94
2018-09-30T05:08:31.376Z,1012.89
2018-09-30T05:09:31.294Z,1012.94
2018-09-30T05:10:31.215Z,1012.90
2018-09-30T05:11:31.133Z,1012.95
2018-09-30T05:12:31.051Z,1012.99
2018-09-30T05:13:30.975Z,1012.94
2018-09-30T05:14:30.891Z,1012.98
2018-09-30T05:15:30.811Z,1012.95
2018-09-30T05:16:30.790Z,1012.97
2018-09-30T05:17:30.646Z,1012.99
2018-09-30T05:18:30.566Z,1012.97
2018-09-30T05:19:30.484Z,1012.93
2018-09-30T05:20:30.403Z,1012.90
2018-09-30T05:21:30.324Z,1012.93
2018-09-30T05:22:30.242Z,1012.93
2018-09-30T05:23:30.161Z,1012.94
2018-09-30T05:24:30.079Z,1012.98
2018-09-30T05:25:30.058Z,1012.97
2018-09-30T05:26:29.918Z,1012.93
2018-09-30T05:27:29.837Z,1012.96
2018-09-30T05:28:29.756Z,1012.92
2018-09-30T05:29:29.674Z,1012.92
2018-09-30T05:30:29.600Z,1012.85
2018-09-30T05:31:29.513Z,1012.84
2018-09-30T05:32:29.428Z,1012.84
2018-09-30T05:33:29.352Z,1012.80
2018-09-30T05:34:29.270Z,1012.87
2018-09-30T05:35:29.190Z,1012.84
2018-09-30T05:36:29.108Z,1012.79
2018-09-30T05:37:29.028Z,1012.85
2018-09-30T05:38:28.946Z,1012.78
2018-09-30T05:39:28.867Z,1012.73
2018-09-30T05:40:28.785Z,1012.69
2018-09-30T05:41:28.708Z,1012.66
2018-09-30T05:42:28.653Z,1012.65
2018-09-30T05:43:28.541Z,1012.67
2018-09-30T05:44:28.465Z,1012.68
2018-09-30T05:45:28.385Z,1012.68
2018-09-30T05:46:28.300Z,1012.67
2018-09-30T05:47:28.222Z,1012.68
2018-09-30T05:48:28.137Z,1012.70
2018-09-30T05:49:28.055Z,1012.71
2018-09-30T05:50:27.972Z,1012.64
2018-09-30T05:51:27.890Z,1012.65
2018-09-30T05:52:27.818Z,1012.63
2018-09-30T05:53:27.733Z,1012.69
2018-09-30T05:54:27.653Z,1012.67
2018-09-30T05:55:27.582Z,1012.65
2018-09-30T05:56:27.490Z,1012.62
2018-09-30T05:57:27.444Z,1012.61
2018-09-30T05:58:27.334Z,1012.60
2018-09-30T05:59:27.249Z,1012.57
2018-09-30T06:00:27.167Z,1012.60
2018-09-30T06:01:27.087Z,1012.65
2018-09-30T06:02:27.014Z,1012.66
2018-09-30T06:03:26.923Z,1012.66
2018-09-30T06:04:26.843Z,1012.67
2018-09-30T06:05:26.765Z,1012.70
2018-09-30T06:06:26.682Z,1012.71
2018-09-30T06:07:26.598Z,1012.71
2018-09-30T06:08:26.520Z,1012.75
2018-09-30T06:09:26.491Z,1012.78
2018-09-30T06:10:26.358Z,1012.82
2018-09-30T06:11:26.275Z,1012.82
2018-09-30T06:12:26.194Z,1012.83
2018-09-30T06:13:26.115Z,1012.83
2018-09-30T06:14:26.037Z,1012.83
2018-09-30T06:15:25.955Z,1012.79
2018-09-30T06:16:25.875Z,1012.73
2018-09-30T06:17:25.793Z,1012.71
2018-09-30T06:18:25.718Z,1012.73
2018-09-30T06:19:25.632Z,1012.72
2018-09-30T06:20:25.550Z,1012.75
2018-09-30T06:21:25.482Z,1012.76
2018-09-30T06:22:25.392Z,1012.74
2018-09-30T06:23:25.307Z,1012.77
2018-09-30T06:24:25.232Z,1012.76
2018-09-30T06:25:25.148Z,1012.79
2018-09-30T06:26:25.089Z,1012.81
2018-09-30T06:27:24.987Z,1012.79
2018-09-30T06:28:24.907Z,1012.75
2018-09-30T06:29:24.828Z,1012.71
2018-09-30T06:30:24.744Z,1012.73
2018-09-30T06:31:24.662Z,1012.81
2018-09-30T06:32:24.593Z,1012.80
2018-09-30T06:33:24.506Z,1012.81
2018-09-30T06:34:24.424Z,1012.81
2018-09-30T06:35:24.343Z,1012.81
2018-09-30T06:36:24.264Z,1012.84
2018-09-30T06:37:24.182Z,1012.86
2018-09-30T06:38:24.102Z,1012.80
2018-09-30T06:39:24.024Z,1012.83
2018-09-30T06:40:23.998Z,1012.85
2018-09-30T06:41:23.864Z,1012.86
2018-09-30T06:42:23.781Z,1012.84
2018-09-30T06:43:23.701Z,1012.84
2018-09-30T06:44:23.620Z,1012.79
2018-09-30T06:45:23.586Z,1012.77
2018-09-30T06:46:23.465Z,1012.77
2018-09-30T06:47:23.377Z,1012.83
2018-09-30T06:48:23.368Z,1012.89
2018-09-30T06:49:23.219Z,1012.93
2018-09-30T06:50:23.143Z,1012.94
2018-09-30T06:51:23.056Z,1012.90
2018-09-30T06:52:22.980Z,1012.88
2018-09-30T06:53:22.905Z,1012.89
2018-09-30T06:54:22.819Z,1012.89
2018-09-30T06:55:22.738Z,1012.90
2018-09-30T06:56:22.656Z,1012.94
2018-09-30T06:57:22.576Z,1012.91
2018-09-30T06:58:22.495Z,1012.89
2018-09-30T06:59:22.416Z,1012.86
2018-09-30T07:00:22.333Z,1012.79
2018-09-30T07:01:22.254Z,1012.83
2018-09-30T07:02:22.177Z,1012.87
2018-09-30T07:03:22.096Z,1012.86
2018-09-30T07:04:22.018Z,1012.83
2018-09-30T07:05:21.937Z,1012.84
2018-09-30T07:06:21.855Z,1012.76
2018-09-30T07:07:21.783Z,1012.81
2018-09-30T07:08:21.696Z,1012.72
2018-09-30T07:09:21.615Z,1012.74
2018-09-30T07:10:21.538Z,1012.73
2018-09-30T07:11:21.455Z,1012.76
2018-09-30T07:12:21.379Z,1012.80
2018-09-30T07:13:21.295Z,1012.86
2018-09-30T07:14:21.218Z,1012.83
2018-09-30T07:15:21.135Z,1012.84
2018-09-30T07:16:21.059Z,1012.86
2018-09-30T07:17:20.979Z,1012.88
2018-09-30T07:18:20.899Z,1012.85
2018-09-30T07:19:20.833Z,1012.89
2018-09-30T07:20:20.742Z,1012.89
2018-09-30T07:21:20.659Z,1012.95
2018-09-30T07:22:20.588Z,1012.93
2018-09-30T07:23:20.500Z,1012.93
2018-09-30T07:24:20.425Z,1012.95
2018-09-30T07:25:20.344Z,1012.93
2018-09-30T07:26:20.265Z,1012.96
2018-09-30T07:27:20.183Z,1012.93
2018-09-30T07:28:20.105Z,1012.95
2018-09-30T07:29:20.026Z,1012.98
2018-09-30T07:30:19.945Z,1012.94
2018-09-30T07:31:19.874Z,1013.00
2018-09-30T07:32:19.788Z,1012.97
2018-09-30T07:33:19.709Z,1012.95
2018-09-30T07:34:19.631Z,1012.99
2018-09-30T07:35:19.552Z,1012.98
2018-09-30T07:36:19.470Z,1013.00
2018-09-30T07:37:19.402Z,1013.02
2018-09-30T07:38:19.314Z,1013.00
2018-09-30T07:39:19.303Z,1012.95
2018-09-30T07:40:19.155Z,1013.00
2018-09-30T07:41:19.078Z,1013.06
2018-09-30T07:42:18.999Z,1013.01
2018-09-30T07:43:18.918Z,1013.05
2018-09-30T07:44:18.842Z,1013.01
2018-09-30T07:45:18.762Z,1012.99
2018-09-30T07:46:18.685Z,1012.94
2018-09-30T07:47:18.605Z,1013.00
2018-09-30T07:48:18.525Z,1013.01
2018-09-30T07:49:18.450Z,1012.99
2018-09-30T07:50:18.372Z,1012.97
2018-09-30T07:51:18.289Z,1012.97
2018-09-30T07:52:18.213Z,1012.93
2018-09-30T07:53:18.134Z,1012.93
2018-09-30T07:54:18.056Z,1012.94
2018-09-30T07:55:17.981Z,1012.96
2018-09-30T07:56:17.899Z,1012.93
2018-09-30T07:57:17.828Z,1012.91
2018-09-30T07:58:17.748Z,1012.93
2018-09-30T07:59:17.688Z,1012.93
2018-09-30T08:00:17.584Z,1012.95
2018-09-30T08:01:17.506Z,1012.93
2018-09-30T08:02:17.429Z,1012.93
2018-09-30T08:03:17.348Z,1012.91
2018-09-30T08:04:17.278Z,1012.87
2018-09-30T08:05:17.198Z,1012.93
2018-09-30T08:06:17.141Z,1012.94
2018-09-30T08:07:17.061Z,1012.88
2018-09-30T08:08:16.980Z,1012.89
2018-09-30T08:09:16.882Z,1012.84
2018-09-30T08:10:16.804Z,1012.80
2018-09-30T08:11:16.724Z,1012.78
2018-09-30T08:12:16.648Z,1012.79
2018-09-30T08:13:16.570Z,1012.78
2018-09-30T08:14:16.494Z,1012.80
2018-09-30T08:15:16.420Z,1012.77
2018-09-30T08:16:16.365Z,1012.79
2018-09-30T08:17:16.258Z,1012.75
2018-09-30T08:18:16.191Z,1012.72
2018-09-30T08:19:16.106Z,1012.73
2018-09-30T08:20:16.027Z,1012.71
2018-09-30T08:21:15.948Z,1012.69
2018-09-30T08:22:15.870Z,1012.73
2018-09-30T08:23:15.799Z,1012.73
2018-09-30T08:24:15.867Z,1012.74
2018-09-30T08:25:15.636Z,1012.74
2018-09-30T08:26:15.560Z,1012.71
2018-09-30T08:27:15.481Z,1012.67
2018-09-30T08:28:15.402Z,1012.66
2018-09-30T08:29:15.324Z,1012.66
2018-09-30T08:30:15.251Z,1012.69
2018-09-30T08:31:15.178Z,1012.64
2018-09-30T08:32:15.098Z,1012.67
2018-09-30T08:33:15.019Z,1012.69
2018-09-30T08:34:14.941Z,1012.64
2018-09-30T08:35:14.866Z,1012.67
2018-09-30T08:36:14.789Z,1012.70
2018-09-30T08:37:14.710Z,1012.71
2018-09-30T08:38:14.632Z,1012.72
2018-09-30T08:39:14.563Z,1012.70
2018-09-30T08:40:14.482Z,1012.67
2018-09-30T08:41:14.409Z,1012.64
2018-09-30T08:42:14.327Z,1012.66
2018-09-30T08:43:14.249Z,1012.65
2018-09-30T08:44:14.181Z,1012.65
2018-09-30T08:45:14.103Z,1012.62
2018-09-30T08:46:14.024Z,1012.61
2018-09-30T08:47:14.042Z,1012.61
2018-09-30T08:48:13.874Z,1012.65
2018-09-30T08:49:13.803Z,1012.62
2018-09-30T08:50:13.715Z,1012.67
2018-09-30T08:51:13.642Z,1012.69
2018-09-30T08:52:13.559Z,1012.64
2018-09-30T08:53:13.486Z,1012.66
2018-09-30T08:54:13.411Z,1012.67
2018-09-30T08:55:13.341Z,1012.70
2018-09-30T08:56:13.338Z,1012.69
2018-09-30T08:57:13.183Z,1012.66
2018-09-30T08:58:13.106Z,1012.70
2018-09-30T08:59:13.031Z,1012.72
2018-09-30T09:00:12.956Z,1012.74
2018-09-30T09:01:12.879Z,1012.71
2018-09-30T09:02:12.805Z,1012.73
2018-09-30T09:03:12.802Z,1012.70
2018-09-30T09:04:12.651Z,1012.69
2018-09-30T09:05:12.578Z,1012.71
2018-09-30T09:06:12.501Z,1012.68
2018-09-30T09:07:12.427Z,1012.67
2018-09-30T09:08:12.352Z,1012.62
2018-09-30T09:09:12.276Z,1012.69
2018-09-30T09:10:12.205Z,1012.65
2018-09-30T09:11:12.131Z,1012.64
2018-09-30T09:12:12.055Z,1012.63
2018-09-30T09:13:11.983Z,1012.63
2018-09-30T09:14:11.905Z,1012.65
2018-09-30T09:15:11.830Z,1012.61
2018-09-30T09:16:11.757Z,1012.58
2018-09-30T09:17:11.683Z,1012.61
2018-09-30T09:18:11.613Z,1012.57
2018-09-30T09:19:11.530Z,1012.53
2018-09-30T09:20:11.458Z,1012.57
2018-09-30T09:21:11.386Z,1012.51
2018-09-30T09:22:11.321Z,1012.52
2018-09-30T09:23:11.239Z,1012.52
2018-09-30T09:24:11.165Z,1012.53
2018-09-30T09:25:11.093Z,1012.53
2018-09-30T09:26:11.017Z,1012.48
2018-09-30T09:27:10.946Z,1012.47
2018-09-30T09:28:10.926Z,1012.49
2018-09-30T09:29:10.800Z,1012.48
2018-09-30T09:30:10.730Z,1012.47
2018-09-30T09:31:10.652Z,1012.45
2018-09-30T09:32:10.578Z,1012.42
2018-09-30T09:33:10.526Z,1012.44
2018-09-30T09:34:10.433Z,1012.43
2018-09-30T09:35:10.409Z,1012.41
2018-09-30T09:36:10.291Z,1012.43
2018-09-30T09:37:10.215Z,1012.41
2018-09-30T09:38:10.143Z,1012.41
2018-09-30T09:39:10.068Z,1012.38
2018-09-30T09:40:10.005Z,1012.36
2018-09-30T09:41:09.933Z,1012.36
2018-09-30T09:42:09.850Z,1012.37
2018-09-30T09:43:09.775Z,1012.38
2018-09-30T09:44:09.702Z,1012.34
2018-09-30T09:45:09.634Z,1012.28
2018-09-30T09:46:09.561Z,1012.25
2018-09-30T09:47:09.631Z,1012.28
2018-09-30T09:48:09.413Z,1012.21
2018-09-30T09:49:09.340Z,1012.21
2018-09-30T09:50:09.268Z,1012.21
2018-09-30T09:51:09.194Z,1012.22
2018-09-30T09:52:09.125Z,1012.13
2018-09-30T09:53:09.052Z,1012.13
2018-09-30T09:54:08.983Z,1012.14
2018-09-30T09:55:08.906Z,1012.13
2018-09-30T09:56:08.834Z,1012.09
2018-09-30T09:57:08.764Z,1012.09
2018-09-30T09:58:08.691Z,1012.06
2018-09-30T09:59:08.675Z,1012.01
2018-09-30T10:00:08.545Z,1011.99
2018-09-30T10:01:08.478Z,1011.99
2018-09-30T10:02:08.403Z,1011.98
2018-09-30T10:03:08.348Z,1012.00
2018-09-30T10:04:08.254Z,1011.96
2018-09-30T10:05:08.196Z,1011.96
2018-09-30T10:06:08.118Z,1011.93
2018-09-30T10:07:08.043Z,1011.94
2018-09-30T10:08:08.037Z,1011.95
2018-09-30T10:09:07.901Z,1011.89
2018-09-30T10:10:07.832Z,1011.93
2018-09-30T10:11:07.768Z,1011.90
2018-09-30T10:12:07.683Z,1011.93
2018-09-30T10:13:07.682Z,1011.87
2018-09-30T10:14:07.543Z,1011.89
2018-09-30T10:15:07.468Z,1011.90
2018-09-30T10:16:07.392Z,1011.88
2018-09-30T10:17:07.321Z,1011.83
2018-09-30T10:18:07.248Z,1011.87
2018-09-30T10:19:07.177Z,1011.87
2018-09-30T10:20:07.105Z,1011.89
2018-09-30T10:21:07.034Z,1011.86
2018-09-30T10:22:06.959Z,1011.84
2018-09-30T10:23:06.885Z,1011.87
2018-09-30T10:24:06.815Z,1011.84
2018-09-30T10:25:06.741Z,1011.86
2018-09-30T10:26:06.670Z,1011.91
2018-09-30T10:27:06.596Z,1011.81
2018-09-30T10:28:06.527Z,1011.85
2018-09-30T10:29:06.456Z,1011.82
2018-09-30T10:30:06.403Z,1011.78
2018-09-30T10:31:06.306Z,1011.75
2018-09-30T10:32:06.237Z,1011.79
2018-09-30T10:33:06.164Z,1011.77
2018-09-30T10:34:06.100Z,1011.77
2018-09-30T10:35:06.024Z,1011.80
2018-09-30T10:36:05.943Z,1011.77
2018-09-30T10:37:05.871Z,1011.78
2018-09-30T10:38:05.799Z,1011.74
2018-09-30T10:39:05.810Z,1011.78
2018-09-30T10:40:05.653Z,1011.72
2018-09-30T10:41:05.579Z,1011.72
2018-09-30T10:42:05.514Z,1011.71
2018-09-30T10:43:05.433Z,1011.68
2018-09-30T10:44:05.359Z,1011.70
2018-09-30T10:45:05.287Z,1011.68
2018-09-30T10:46:05.214Z,1011.66
2018-09-30T10:47:05.143Z,1011.72
2018-09-30T10:48:05.068Z,1011.69
2018-09-30T10:49:04.994Z,1011.69
2018-09-30T10:50:04.923Z,1011.65
2018-09-30T10:51:04.862Z,1011.65
2018-09-30T10:52:04.783Z,1011.58
2018-09-30T10:53:04.702Z,1011.54
2018-09-30T10:54:04.635Z,1011.56
2018-09-30T10:55:04.559Z,1011.52
2018-09-30T10:56:04.484Z,1011.52
2018-09-30T10:57:04.409Z,1011.55
2018-09-30T10:58:04.338Z,1011.55
2018-09-30T10:59:04.264Z,1011.51
2018-09-30T11:00:04.197Z,1011.46
2018-09-30T11:01:04.122Z,1011.45
2018-09-30T11:02:04.046Z,1011.42
2018-09-30T11:03:03.972Z,1011.40
2018-09-30T11:04:03.901Z,1011.33
2018-09-30T11:05:03.829Z,1011.30
2018-09-30T11:06:03.761Z,1011.31
2018-09-30T11:07:03.683Z,1011.27
2018-09-30T11:08:03.607Z,1011.28
2018-09-30T11:09:03.542Z,1011.25
2018-09-30T11:10:03.544Z,1011.27
2018-09-30T11:11:03.389Z,1011.26
2018-09-30T11:12:03.322Z,1011.21
2018-09-30T11:13:03.245Z,1011.23
2018-09-30T11:14:03.172Z,1011.21
2018-09-30T11:15:03.098Z,1011.17
2018-09-30T11:16:03.048Z,1011.14
2018-09-30T11:17:02.953Z,1011.11
2018-09-30T11:18:02.881Z,1011.14
2018-09-30T11:19:02.808Z,1011.19
2018-09-30T11:20:02.736Z,1011.14
2018-09-30T11:21:02.663Z,1011.04
2018-09-30T11:22:02.593Z,1011.05
2018-09-30T11:23:02.518Z,1011.01
2018-09-30T11:24:02.448Z,1011.06
2018-09-30T11:25:02.372Z,1011.04
2018-09-30T11:26:02.300Z,1011.02
2018-09-30T11:27:02.226Z,1010.99
2018-09-30T11:28:02.158Z,1010.92
2018-09-30T11:29:02.090Z,1010.92
2018-09-30T11:30:02.012Z,1010.88
2018-09-30T11:31:01.937Z,1010.90
2018-09-30T11:32:01.865Z,1010.94
2018-09-30T11:33:01.788Z,1010.92
2018-09-30T11:34:01.721Z,1010.93
2018-09-30T11:35:01.646Z,1010.92
2018-09-30T11:36:01.576Z,1010.95
2018-09-30T11:37:01.504Z,1011.02
2018-09-30T11:38:01.432Z,1011.02
2018-09-30T11:39:01.358Z,1010.91
2018-09-30T11:40:01.285Z,1010.87
2018-09-30T11:41:01.215Z,1010.90
2018-09-30T11:42:01.156Z,1010.84
2018-09-30T11:43:01.070Z,1010.83
2018-09-30T11:44:00.995Z,1010.78
2018-09-30T11:45:00.927Z,1010.76
2018-09-30T11:46:00.855Z,1010.71
2018-09-30T11:47:00.783Z,1010.64
2018-09-30T11:48:00.712Z,1010.64
2018-09-30T11:49:00.640Z,1010.66
2018-09-30T11:50:00.573Z,1010.59
2018-09-30T11:51:00.497Z,1010.61
2018-09-30T11:52:00.426Z,1010.59
2018-09-30T11:53:00.355Z,1010.54
2018-09-30T11:54:00.282Z,1010.52
2018-09-30T11:55:00.212Z,1010.52
2018-09-30T11:56:00.138Z,1010.52
2018-09-30T11:57:00.069Z,1010.53
2018-09-30T11:58:00.014Z,1010.55
2018-09-30T11:58:59.926Z,1010.52
2018-09-30T11:59:59.864Z,1010.58
2018-09-30T12:00:59.789Z,1010.55
2018-09-30T12:01:59.710Z,1010.56
2018-09-30T12:02:59.639Z,1010.57
2018-09-30T12:03:59.567Z,1010.60
2018-09-30T12:04:59.496Z,1010.61